createdAt,value
2023-04-04T00:00:42.690Z,3.40
2023-04-04T00:03:11.279Z,3.30
2023-04-04T00:05:40.933Z,3.30
2023-04-04T00:08:09.674Z,3.10
2023-04-04T00:10:37.814Z,2.90
2023-04-04T00:13:07.612Z,2.80
2023-04-04T00:15:36.519Z,2.90
2023-04-04T00:18:04.888Z,2.70
2023-04-04T00:20:33.003Z,2.70
2023-04-04T00:23:02.370Z,2.80
2023-04-04T00:25:30.451Z,2.70
2023-04-04T00:28:00.970Z,2.90
2023-04-04T00:30:29.635Z,3.10
2023-04-04T00:32:58.181Z,3.10
2023-04-04T00:35:26.646Z,2.80
2023-04-04T00:37:54.705Z,2.70
2023-04-04T00:40:24.366Z,2.50
2023-04-04T00:42:53.010Z,2.30
2023-04-04T00:45:21.491Z,2.20
2023-04-04T00:47:50.244Z,2.20
2023-04-04T00:50:18.506Z,2.50
2023-04-04T00:52:46.512Z,2.40
2023-04-04T00:55:14.697Z,2.30
2023-04-04T00:57:44.172Z,2.10
2023-04-04T01:00:15.998Z,2.10
2023-04-04T01:02:44.383Z,2.50
2023-04-04T01:05:13.525Z,2.40
2023-04-04T01:07:42.763Z,2.40
2023-04-04T01:10:12.738Z,2.50
2023-04-04T01:12:43.128Z,2.30
2023-04-04T01:15:12.295Z,2.40
2023-04-04T01:17:41.856Z,2.50
2023-04-04T01:20:14.020Z,2.40
2023-04-04T01:22:48.488Z,2.30
2023-04-04T01:25:19.968Z,2.30
2023-04-04T01:27:56.676Z,2.20
2023-04-04T01:30:27.290Z,2.30
2023-04-04T01:33:00.570Z,2.50
2023-04-04T01:35:36.788Z,2.60
2023-04-04T01:38:15.885Z,2.50
2023-04-04T01:40:49.611Z,2.70
2023-04-04T01:43:19.851Z,2.50
2023-04-04T01:45:48.173Z,2.50
2023-04-04T01:48:17.097Z,2.50
2023-04-04T01:50:49.137Z,2.80
2023-04-04T01:53:17.848Z,2.70
2023-04-04T01:55:45.907Z,2.60
2023-04-04T01:58:15.580Z,2.60
2023-04-04T02:00:45.083Z,2.60
2023-04-04T02:03:13.124Z,2.50
2023-04-04T02:05:41.179Z,2.60
2023-04-04T02:08:10.384Z,2.50
2023-04-04T02:10:47.244Z,2.50
2023-04-04T02:13:15.287Z,2.30
2023-04-04T02:15:44.746Z,2.30
2023-04-04T02:18:12.879Z,2.30
2023-04-04T02:20:41.194Z,2.40
2023-04-04T02:23:09.401Z,2.30
2023-04-04T02:25:37.487Z,2.40
2023-04-04T02:28:05.574Z,2.30
2023-04-04T02:30:33.611Z,2.30
2023-04-04T02:33:05.631Z,2.50
2023-04-04T02:35:34.090Z,2.70
2023-04-04T02:38:02.358Z,2.40
2023-04-04T02:40:41.488Z,2.40
2023-04-04T02:43:10.151Z,2.40
2023-04-04T02:45:39.148Z,2.20
2023-04-04T02:48:22.822Z,2.40
2023-04-04T02:50:53.334Z,2.30
2023-04-04T02:53:21.464Z,2.40
2023-04-04T02:55:51.685Z,2.40
2023-04-04T02:58:19.700Z,2.60
2023-04-04T03:00:48.188Z,2.80
2023-04-04T03:03:16.898Z,2.40
2023-04-04T03:05:49.545Z,2.30
2023-04-04T03:08:17.800Z,2.60
2023-04-04T03:10:46.512Z,2.70
2023-04-04T03:13:14.597Z,2.60
2023-04-04T03:15:43.809Z,2.40
2023-04-04T03:18:17.468Z,2.20
2023-04-04T03:20:46.167Z,2.00
2023-04-04T03:23:15.565Z,2.10
2023-04-04T03:25:43.684Z,2.20
2023-04-04T03:28:12.526Z,2.30
2023-04-04T03:30:41.754Z,2.40
2023-04-04T03:33:10.241Z,2.20
2023-04-04T03:35:40.348Z,2.50
2023-04-04T03:38:09.371Z,2.60
2023-04-04T03:40:38.972Z,2.50
2023-04-04T03:43:12.907Z,2.50
2023-04-04T03:45:42.687Z,2.40
2023-04-04T03:48:11.334Z,2.40
2023-04-04T03:50:40.973Z,2.20
2023-04-04T03:53:09.261Z,2.20
2023-04-04T03:55:42.009Z,2.20
2023-04-04T03:58:10.054Z,2.30
2023-04-04T04:00:38.376Z,2.00
2023-04-04T04:03:06.609Z,1.90
2023-04-04T04:05:34.756Z,1.80
2023-04-04T04:08:02.835Z,1.70
2023-04-04T04:10:30.873Z,1.80
2023-04-04T04:13:01.275Z,2.10
2023-04-04T04:15:29.971Z,1.90
2023-04-04T04:18:00.239Z,1.70
2023-04-04T04:20:29.400Z,1.70
2023-04-04T04:22:58.173Z,1.90
2023-04-04T04:25:26.512Z,2.00
2023-04-04T04:28:03.679Z,2.00
2023-04-04T04:30:32.691Z,2.10
2023-04-04T04:33:00.992Z,2.10
2023-04-04T04:35:37.899Z,1.80
2023-04-04T04:38:06.708Z,1.80
2023-04-04T04:40:34.979Z,1.90
2023-04-04T04:43:09.760Z,2.00
2023-04-04T04:45:38.237Z,1.80
2023-04-04T04:48:09.484Z,2.00
2023-04-04T04:50:45.090Z,1.90
2023-04-04T04:53:15.342Z,2.00
2023-04-04T04:55:47.504Z,2.10
2023-04-04T04:58:17.521Z,2.30
2023-04-04T05:00:49.791Z,2.30
2023-04-04T05:03:17.853Z,2.20
2023-04-04T05:05:50.496Z,2.40
2023-04-04T05:08:18.801Z,2.30
2023-04-04T05:11:04.790Z,2.20
2023-04-04T05:13:35.957Z,2.10
2023-04-04T05:16:04.806Z,2.00
2023-04-04T05:18:33.969Z,2.00
2023-04-04T05:21:02.569Z,2.20
2023-04-04T05:23:31.188Z,2.10
2023-04-04T05:25:59.231Z,1.90
2023-04-04T05:28:31.477Z,1.90
2023-04-04T05:31:04.616Z,1.90
2023-04-04T05:33:34.877Z,1.90
2023-04-04T05:36:13.253Z,2.30
2023-04-04T05:38:51.028Z,2.50
2023-04-04T05:41:22.152Z,2.70
2023-04-04T05:43:52.332Z,2.90
2023-04-04T05:46:26.088Z,2.60
2023-04-04T05:48:55.488Z,2.40
2023-04-04T05:51:24.716Z,2.40
2023-04-04T05:54:07.439Z,2.40
2023-04-04T05:56:36.642Z,2.30
2023-04-04T05:59:09.188Z,2.60
2023-04-04T06:01:53.329Z,2.90
2023-04-04T06:04:21.460Z,2.90
2023-04-04T06:06:49.715Z,3.10
2023-04-04T06:09:18.112Z,2.80
2023-04-04T06:11:46.136Z,3.00
2023-04-04T06:14:15.362Z,3.00
2023-04-04T06:16:44.808Z,3.30
2023-04-04T06:19:14.458Z,3.40
2023-04-04T06:21:43.076Z,3.30
2023-04-04T06:24:13.368Z,3.30
2023-04-04T06:26:42.706Z,3.50
2023-04-04T06:29:10.795Z,3.60
2023-04-04T06:31:40.690Z,3.70
2023-04-04T06:34:14.922Z,3.80
2023-04-04T06:37:02.172Z,3.90
2023-04-04T06:39:35.875Z,4.10
2023-04-04T06:42:08.553Z,4.30
2023-04-04T06:44:37.941Z,4.50
2023-04-04T06:47:06.438Z,4.70
2023-04-04T06:49:36.128Z,4.90
2023-04-04T06:52:04.306Z,5.10
2023-04-04T06:54:33.232Z,5.30
2023-04-04T06:57:01.358Z,5.50
2023-04-04T06:59:29.476Z,5.80
2023-04-04T07:01:58.451Z,5.90
2023-04-04T07:04:27.148Z,6.10
2023-04-04T07:06:57.107Z,6.20
2023-04-04T07:09:29.126Z,6.40
2023-04-04T07:11:57.953Z,6.50
2023-04-04T07:14:36.932Z,6.70
2023-04-04T07:17:13.720Z,6.80
2023-04-04T07:19:49.813Z,7.00
2023-04-04T07:22:19.240Z,7.20
2023-04-04T07:24:48.242Z,7.40
2023-04-04T07:27:16.482Z,7.60
2023-04-04T07:29:44.500Z,7.80
2023-04-04T07:32:12.560Z,7.90
2023-04-04T07:34:40.617Z,8.00
2023-04-04T07:37:08.633Z,8.10
2023-04-04T07:39:38.304Z,8.30
2023-04-04T07:42:06.637Z,8.50
2023-04-04T07:44:34.712Z,8.60
2023-04-04T07:47:10.055Z,8.80
2023-04-04T07:49:38.737Z,9.00
2023-04-04T07:52:07.211Z,9.10
2023-04-04T07:54:35.313Z,9.20
2023-04-04T07:57:06.026Z,9.30
2023-04-04T07:59:34.221Z,9.40
2023-04-04T08:02:02.248Z,9.50
2023-04-04T08:04:30.381Z,9.40
2023-04-04T08:06:58.691Z,9.50
2023-04-04T08:09:31.262Z,9.70
2023-04-04T08:11:59.445Z,9.60
2023-04-04T08:14:28.892Z,9.50
2023-04-04T08:16:56.916Z,9.40
2023-04-04T08:19:25.053Z,9.30
2023-04-04T08:21:53.114Z,9.40
2023-04-04T08:24:22.348Z,9.30
2023-04-04T08:26:58.252Z,9.40
2023-04-04T08:29:34.288Z,9.60
2023-04-04T08:32:02.437Z,9.90
2023-04-04T08:34:30.502Z,10.10
2023-04-04T08:36:58.639Z,10.30
2023-04-04T08:39:27.084Z,10.60
2023-04-04T08:42:03.968Z,10.80
2023-04-04T08:44:34.762Z,11.00
2023-04-04T08:47:05.393Z,11.10
2023-04-04T08:49:37.106Z,11.20
2023-04-04T08:52:07.451Z,11.30
2023-04-04T08:54:36.163Z,11.70
2023-04-04T08:57:04.617Z,11.60
2023-04-04T08:59:34.347Z,11.90
2023-04-04T09:02:06.665Z,12.10
2023-04-04T09:04:34.919Z,12.40
2023-04-04T09:07:05.098Z,12.80
2023-04-04T09:09:34.131Z,13.00
2023-04-04T09:12:03.424Z,12.90
2023-04-04T09:14:34.868Z,12.70
2023-04-04T09:17:03.538Z,12.40
2023-04-04T09:19:31.734Z,12.20
2023-04-04T09:21:59.752Z,12.10
2023-04-04T09:24:39.135Z,12.10
2023-04-04T09:27:09.612Z,12.00
2023-04-04T09:29:41.799Z,12.00
2023-04-04T09:32:11.116Z,12.00
2023-04-04T09:34:39.330Z,11.80
2023-04-04T09:37:07.484Z,11.70
2023-04-04T09:39:36.332Z,11.50
2023-04-04T09:42:04.898Z,11.30
2023-04-04T09:44:34.177Z,11.10
2023-04-04T09:47:30.550Z,11.10
2023-04-04T09:49:59.922Z,11.10
2023-04-04T09:52:28.363Z,11.30
2023-04-04T09:54:58.263Z,11.40
2023-04-04T09:57:28.996Z,11.80
2023-04-04T10:00:00.009Z,11.90
2023-04-04T10:02:32.534Z,12.30
2023-04-04T10:07:33.496Z,12.80
2023-04-04T10:10:03.808Z,12.80
2023-04-04T10:12:33.202Z,13.10
2023-04-04T10:15:01.775Z,13.10
2023-04-04T10:17:38.015Z,13.10
2023-04-04T10:20:09.054Z,13.10
2023-04-04T10:22:38.694Z,13.20
2023-04-04T10:25:09.315Z,13.50
2023-04-04T10:27:38.732Z,13.70
2023-04-04T10:30:08.181Z,13.50
2023-04-04T10:32:45.734Z,13.10
2023-04-04T10:35:14.958Z,13.40
2023-04-04T10:37:46.706Z,13.20
2023-04-04T10:40:17.400Z,12.90
2023-04-04T10:42:47.450Z,12.60
2023-04-04T10:45:21.308Z,12.00
2023-04-04T10:47:52.607Z,12.40
2023-04-04T10:50:21.829Z,13.00
2023-04-04T10:52:50.366Z,13.60
2023-04-04T10:55:18.680Z,13.70
2023-04-04T10:57:51.827Z,14.10
2023-04-04T11:00:23.368Z,14.30
2023-04-04T11:02:57.599Z,14.30
2023-04-04T11:05:26.819Z,14.10
2023-04-04T11:10:31.852Z,14.40
2023-04-04T11:13:12.838Z,14.70
2023-04-04T11:15:55.762Z,14.80
2023-04-04T11:18:47.977Z,14.70
2023-04-04T11:21:18.372Z,14.70
2023-04-04T11:24:18.935Z,14.70
2023-04-04T11:26:47.156Z,14.90
2023-04-04T11:29:23.990Z,14.60
2023-04-04T11:31:52.388Z,14.10
2023-04-04T11:34:34.480Z,14.20
2023-04-04T11:37:17.933Z,14.10
2023-04-04T11:39:56.530Z,14.10
2023-04-04T11:42:24.849Z,14.30
2023-04-04T11:45:07.525Z,14.70
2023-04-04T11:47:35.754Z,14.60
2023-04-04T11:50:10.628Z,14.60
2023-04-04T11:52:39.503Z,14.40
2023-04-04T11:55:17.058Z,14.20
2023-04-04T11:57:45.080Z,14.00
2023-04-04T12:00:15.633Z,13.80
2023-04-04T12:02:43.928Z,13.90
2023-04-04T12:05:14.628Z,13.70
2023-04-04T12:07:42.885Z,13.00
2023-04-04T12:10:11.835Z,12.30
2023-04-04T12:12:40.311Z,12.60
2023-04-04T12:15:17.303Z,12.90
2023-04-04T12:17:49.104Z,13.00
2023-04-04T12:20:18.672Z,13.10
2023-04-04T12:22:50.661Z,13.00
2023-04-04T12:25:20.497Z,12.90
2023-04-04T12:27:49.517Z,13.10
2023-04-04T12:30:18.857Z,13.10
2023-04-04T12:32:48.293Z,13.30
2023-04-04T12:35:18.751Z,13.10
2023-04-04T12:38:00.795Z,12.90
2023-04-04T12:40:36.972Z,12.80
2023-04-04T12:43:09.492Z,12.50
2023-04-04T12:45:41.535Z,12.40
2023-04-04T12:48:13.726Z,12.60
2023-04-04T12:50:54.100Z,12.30
2023-04-04T12:55:55.529Z,12.10
2023-04-04T12:58:25.974Z,12.10
2023-04-04T13:00:56.288Z,12.00
2023-04-04T13:03:25.725Z,12.00
2023-04-04T13:05:55.187Z,12.00
2023-04-04T13:08:23.446Z,12.20
2023-04-04T13:11:02.442Z,12.10
2023-04-04T13:13:35.329Z,11.90
2023-04-04T13:16:04.396Z,11.60
2023-04-04T13:18:38.248Z,11.20
2023-04-04T13:21:10.877Z,11.30
2023-04-04T13:23:40.598Z,11.20
2023-04-04T13:26:09.623Z,11.50
2023-04-04T13:28:37.928Z,11.90
2023-04-04T13:31:07.049Z,12.10
2023-04-04T13:33:35.886Z,11.80
2023-04-04T13:36:04.036Z,11.50
2023-04-04T13:38:33.649Z,11.60
2023-04-04T13:41:01.708Z,11.80
2023-04-04T13:43:29.746Z,11.90
2023-04-04T13:45:57.764Z,11.80
2023-04-04T13:48:26.370Z,11.80
2023-04-04T13:50:55.724Z,11.60
2023-04-04T13:53:23.846Z,11.70
2023-04-04T13:58:24.204Z,11.10
2023-04-04T14:00:52.569Z,11.00
2023-04-04T14:03:20.787Z,10.90
2023-04-04T14:05:48.863Z,10.80
2023-04-04T14:08:16.923Z,11.00
2023-04-04T14:10:44.968Z,10.80
2023-04-04T14:13:14.382Z,10.70
2023-04-04T14:15:42.893Z,10.80
2023-04-04T14:18:12.220Z,10.60
2023-04-04T14:20:40.286Z,10.30
2023-04-04T14:23:09.432Z,10.40
2023-04-04T14:25:37.511Z,10.60
2023-04-04T14:28:06.036Z,10.70
2023-04-04T14:30:35.396Z,10.70
2023-04-04T14:33:03.485Z,10.50
2023-04-04T14:35:31.514Z,10.50
2023-04-04T14:37:59.529Z,10.50
2023-04-04T14:40:29.227Z,10.50
2023-04-04T14:42:57.233Z,10.60
2023-04-04T14:45:25.583Z,10.30
2023-04-04T14:47:55.048Z,10.40
2023-04-04T14:50:23.065Z,10.20
2023-04-04T14:52:52.770Z,10.00
2023-04-04T14:55:22.019Z,9.90
2023-04-04T14:58:02.000Z,10.00
2023-04-04T15:00:31.175Z,9.90
2023-04-04T15:03:00.954Z,10.10
2023-04-04T15:05:29.080Z,10.00
2023-04-04T15:07:57.126Z,9.70
2023-04-04T15:10:25.156Z,9.60
2023-04-04T15:12:53.197Z,9.60
2023-04-04T15:15:23.468Z,9.70
2023-04-04T15:17:52.478Z,9.80
2023-04-04T15:20:21.920Z,9.90
2023-04-04T15:22:49.978Z,9.90
2023-04-04T15:25:18.000Z,9.90
2023-04-04T15:27:46.157Z,9.80
2023-04-04T15:30:15.561Z,9.70
2023-04-04T15:32:43.647Z,9.60
2023-04-04T15:35:18.263Z,9.50
2023-04-04T15:37:49.049Z,9.40
2023-04-04T15:40:17.587Z,9.50
2023-04-04T15:42:46.626Z,9.50
2023-04-04T15:45:16.024Z,9.60
2023-04-04T15:47:45.042Z,9.40
2023-04-04T15:50:13.523Z,9.40
2023-04-04T15:52:41.745Z,9.40
2023-04-04T15:55:14.443Z,9.40
2023-04-04T15:57:44.559Z,9.40
2023-04-04T16:00:14.544Z,9.40
2023-04-04T16:02:42.845Z,9.30
2023-04-04T16:05:11.421Z,9.50
2023-04-04T16:07:39.575Z,9.60
2023-04-04T16:10:08.942Z,9.50
2023-04-04T16:12:38.336Z,9.50
2023-04-04T16:15:08.268Z,9.40
2023-04-04T16:17:36.338Z,9.40
2023-04-04T16:20:04.930Z,9.40
2023-04-04T16:22:33.254Z,9.30
2023-04-04T16:25:01.390Z,9.20
2023-04-04T16:27:29.601Z,9.20
2023-04-04T16:29:58.979Z,9.20
2023-04-04T16:32:27.090Z,9.10
2023-04-04T16:34:55.432Z,9.10
2023-04-04T16:37:23.481Z,9.00
2023-04-04T16:39:52.150Z,9.00
2023-04-04T16:42:20.498Z,8.80
2023-04-04T16:44:48.588Z,8.80
2023-04-04T16:47:17.994Z,8.80
2023-04-04T16:49:47.903Z,8.80
2023-04-04T16:52:16.241Z,8.70
2023-04-04T16:54:44.391Z,8.70
2023-04-04T16:57:12.560Z,8.80
2023-04-04T16:59:40.612Z,8.70
2023-04-04T17:02:09.289Z,8.70
2023-04-04T17:04:41.632Z,8.60
2023-04-04T17:07:10.256Z,8.60
2023-04-04T17:09:38.571Z,8.50
2023-04-04T17:12:07.464Z,8.50
2023-04-04T17:14:35.865Z,8.40
2023-04-04T17:17:05.389Z,8.30
2023-04-04T17:19:35.214Z,8.30
2023-04-04T17:22:04.866Z,8.20
2023-04-04T17:24:33.374Z,8.10
2023-04-04T17:27:02.414Z,8.00
2023-04-04T17:29:30.749Z,7.90
2023-04-04T17:31:59.806Z,7.90
2023-04-04T17:34:28.395Z,7.80
2023-04-04T17:36:56.910Z,7.70
2023-04-04T17:39:28.680Z,7.60
2023-04-04T17:41:56.975Z,7.60
2023-04-04T17:44:25.755Z,7.50
2023-04-04T17:46:55.375Z,7.40
2023-04-04T17:49:23.754Z,7.40
2023-04-04T17:51:52.172Z,7.30
2023-04-04T17:54:20.811Z,7.30
2023-04-04T17:56:50.493Z,7.20
2023-04-04T17:59:18.753Z,7.10
2023-04-04T18:01:47.207Z,7.10
2023-04-04T18:04:15.663Z,7.10
2023-04-04T18:06:44.593Z,7.00
2023-04-04T18:09:13.488Z,7.00
2023-04-04T18:11:42.137Z,7.00
2023-04-04T18:14:11.963Z,7.00
2023-04-04T18:16:41.043Z,7.00
2023-04-04T18:19:10.001Z,7.00
2023-04-04T18:21:38.387Z,7.00
2023-04-04T18:24:07.954Z,7.00
2023-04-04T18:26:36.118Z,6.90
2023-04-04T18:29:04.248Z,6.90
2023-04-04T18:31:33.718Z,6.80
2023-04-04T18:34:02.046Z,6.70
2023-04-04T18:36:30.950Z,6.80
2023-04-04T18:39:00.996Z,6.90
2023-04-04T18:41:29.154Z,7.00
2023-04-04T18:43:57.312Z,7.00
2023-04-04T18:46:25.471Z,7.10
2023-04-04T18:48:56.283Z,7.00
2023-04-04T18:51:24.348Z,7.10
2023-04-04T18:53:52.561Z,7.10
2023-04-04T18:56:21.502Z,7.10
2023-04-04T18:58:49.631Z,7.00
2023-04-04T19:01:17.814Z,7.00
2023-04-04T19:03:48.059Z,7.00
2023-04-04T19:06:17.919Z,7.00
2023-04-04T19:08:46.321Z,6.90
2023-04-04T19:11:15.686Z,6.90
2023-04-04T19:13:43.881Z,6.80
2023-04-04T19:16:12.105Z,6.70
2023-04-04T19:18:40.207Z,6.60
2023-04-04T19:21:10.940Z,6.50
2023-04-04T19:23:40.919Z,6.50
2023-04-04T19:26:09.275Z,6.40
2023-04-04T19:28:37.620Z,6.40
2023-04-04T19:31:10.781Z,6.50
2023-04-04T19:33:39.592Z,6.50
2023-04-04T19:36:11.249Z,6.50
2023-04-04T19:38:42.610Z,6.40
2023-04-04T19:41:14.500Z,6.30
2023-04-04T19:43:45.337Z,6.20
2023-04-04T19:46:16.189Z,6.10
2023-04-04T19:48:48.623Z,6.20
2023-04-04T19:51:37.437Z,6.10
2023-04-04T19:54:09.108Z,6.10
2023-04-04T19:56:37.297Z,6.00
2023-04-04T19:59:08.274Z,6.10
2023-04-04T20:01:44.653Z,6.00
2023-04-04T20:04:18.858Z,5.90
2023-04-04T20:06:49.057Z,5.90
2023-04-04T20:09:34.543Z,5.80
2023-04-04T20:12:02.705Z,5.70
2023-04-04T20:14:30.915Z,5.60
2023-04-04T20:16:59.020Z,5.70
2023-04-04T20:19:28.656Z,5.70
2023-04-04T20:21:57.398Z,5.70
2023-04-04T20:24:28.434Z,5.70
2023-04-04T20:26:59.162Z,5.60
2023-04-04T20:29:28.896Z,5.40
2023-04-04T20:31:58.632Z,5.50
2023-04-04T20:34:41.449Z,5.60
2023-04-04T20:37:12.692Z,5.70
2023-04-04T20:39:46.660Z,5.30
2023-04-04T20:42:40.223Z,5.10
2023-04-04T20:45:34.779Z,5.30
2023-04-04T20:48:05.986Z,5.30
2023-04-04T20:50:46.295Z,5.20
2023-04-04T20:53:20.095Z,5.20
2023-04-04T20:55:51.493Z,5.20
2023-04-04T20:58:30.462Z,5.20
2023-04-04T21:01:00.718Z,4.90
2023-04-04T21:03:35.215Z,4.70
2023-04-04T21:06:13.217Z,4.60
2023-04-04T21:08:44.252Z,4.70
2023-04-04T21:11:14.927Z,5.00
2023-04-04T21:13:45.580Z,5.10
2023-04-04T21:16:16.789Z,5.00
2023-04-04T21:18:46.019Z,4.70
2023-04-04T21:21:18.575Z,4.40
2023-04-04T21:23:49.609Z,4.40
2023-04-04T21:26:30.349Z,4.60
2023-04-04T21:28:59.739Z,4.60
2023-04-04T21:31:37.039Z,4.40
2023-04-04T21:34:09.981Z,4.30
2023-04-04T21:36:38.082Z,4.20
2023-04-04T21:39:10.828Z,4.20
2023-04-04T21:41:40.886Z,4.10
2023-04-04T21:44:10.459Z,4.00
2023-04-04T21:46:40.413Z,4.10
2023-04-04T21:49:09.631Z,4.20
2023-04-04T21:51:37.881Z,4.10
2023-04-04T21:54:06.089Z,4.30
2023-04-04T21:56:34.260Z,4.30
2023-04-04T21:59:06.198Z,4.40
2023-04-04T22:01:34.366Z,4.30
2023-04-04T22:04:02.753Z,4.20
2023-04-04T22:06:31.105Z,4.30
2023-04-04T22:09:01.729Z,4.20
2023-04-04T22:11:30.555Z,4.10
2023-04-04T22:14:04.394Z,4.00
2023-04-04T22:16:36.766Z,3.90
2023-04-04T22:19:05.260Z,3.90
2023-04-04T22:21:36.446Z,4.10
2023-04-04T22:24:05.806Z,4.10
2023-04-04T22:26:34.558Z,4.00
2023-04-04T22:29:06.133Z,4.00
2023-04-04T22:31:37.453Z,3.80
2023-04-04T22:34:06.443Z,3.70
2023-04-04T22:36:35.408Z,3.60
2023-04-04T22:39:03.656Z,3.90
2023-04-04T22:41:31.766Z,4.00
2023-04-04T22:43:59.818Z,3.80
2023-04-04T22:46:28.854Z,3.70
2023-04-04T22:49:06.404Z,4.00
2023-04-04T22:51:43.026Z,3.70
2023-04-04T22:54:12.978Z,3.70
2023-04-04T22:56:41.722Z,3.60
2023-04-04T22:59:09.860Z,3.50
2023-04-04T23:01:38.169Z,3.70
2023-04-04T23:04:08.024Z,3.60
2023-04-04T23:06:38.244Z,3.70
2023-04-04T23:09:08.072Z,3.90
2023-04-04T23:11:36.962Z,3.70
2023-04-04T23:14:08.873Z,3.90
2023-04-04T23:16:37.573Z,3.60
2023-04-04T23:19:07.526Z,3.70
2023-04-04T23:21:36.595Z,3.60
2023-04-04T23:24:04.925Z,3.50
2023-04-04T23:26:33.485Z,3.60
2023-04-04T23:29:02.057Z,3.60
2023-04-04T23:31:30.624Z,3.60
2023-04-04T23:33:59.980Z,3.90
2023-04-04T23:36:29.525Z,3.80
2023-04-04T23:38:57.555Z,3.60
2023-04-04T23:41:26.626Z,3.60
2023-04-04T23:43:54.653Z,3.70
2023-04-04T23:46:23.813Z,3.80
2023-04-04T23:48:51.864Z,3.60
2023-04-04T23:51:19.947Z,3.50
2023-04-04T23:53:49.326Z,3.50
2023-04-04T23:56:17.790Z,3.30
2023-04-04T23:58:46.123Z,3.20
